sensor_id;sensor_type;location;lat;lon;timestamp;P1;durP1;ratioP1;P2;durP2;ratioP2
74495;SDS011;62979;55.720;37.606;2022-10-16T00:01:09;5.30;;;2.40;;
74495;SDS011;62979;55.720;37.606;2022-10-16T00:03:39;7.82;;;2.97;;
74495;SDS011;62979;55.720;37.606;2022-10-16T00:06:07;4.30;;;2.60;;
74495;SDS011;62979;55.720;37.606;2022-10-16T00:08:36;4.82;;;2.58;;
74495;SDS011;62979;55.720;37.606;2022-10-16T00:11:05;3.55;;;2.47;;
74495;SDS011;62979;55.720;37.606;2022-10-16T00:13:34;4.55;;;2.92;;
74495;SDS011;62979;55.720;37.606;2022-10-16T00:16:04;4.93;;;2.58;;
74495;SDS011;62979;55.720;37.606;2022-10-16T00:18:34;4.53;;;2.92;;
74495;SDS011;62979;55.720;37.606;2022-10-16T00:21:03;5.43;;;2.92;;
74495;SDS011;62979;55.720;37.606;2022-10-16T00:23:33;5.13;;;2.70;;
74495;SDS011;62979;55.720;37.606;2022-10-16T00:26:01;5.15;;;2.58;;
74495;SDS011;62979;55.720;37.606;2022-10-16T00:28:34;4.18;;;2.75;;
74495;SDS011;62979;55.720;37.606;2022-10-16T00:31:02;4.57;;;3.17;;
74495;SDS011;62979;55.720;37.606;2022-10-16T00:33:31;4.43;;;2.50;;
74495;SDS011;62979;55.720;37.606;2022-10-16T00:36:00;6.03;;;3.33;;
74495;SDS011;62979;55.720;37.606;2022-10-16T00:38:28;5.47;;;3.25;;
74495;SDS011;62979;55.720;37.606;2022-10-16T00:40:55;6.15;;;2.88;;
74495;SDS011;62979;55.720;37.606;2022-10-16T00:43:36;3.75;;;2.50;;
74495;SDS011;62979;55.720;37.606;2022-10-16T00:46:09;6.25;;;2.58;;
74495;SDS011;62979;55.720;37.606;2022-10-16T00:48:45;5.22;;;2.42;;
74495;SDS011;62979;55.720;37.606;2022-10-16T00:51:21;4.80;;;2.78;;
74495;SDS011;62979;55.720;37.606;2022-10-16T00:53:56;6.43;;;2.75;;
74495;SDS011;62979;55.720;37.606;2022-10-16T00:56:24;6.28;;;2.55;;
74495;SDS011;62979;55.720;37.606;2022-10-16T00:58:51;5.53;;;3.33;;
74495;SDS011;62979;55.720;37.606;2022-10-16T01:01:19;4.22;;;2.40;;
74495;SDS011;62979;55.720;37.606;2022-10-16T01:03:46;4.95;;;2.58;;
74495;SDS011;62979;55.720;37.606;2022-10-16T01:06:21;4.63;;;2.80;;
74495;SDS011;62979;55.720;37.606;2022-10-16T01:09:01;4.45;;;2.35;;
74495;SDS011;62979;55.720;37.606;2022-10-16T01:14:17;3.97;;;2.45;;
74495;SDS011;62979;55.720;37.606;2022-10-16T01:16:53;5.07;;;2.20;;
74495;SDS011;62979;55.720;37.606;2022-10-16T01:19:33;6.72;;;2.53;;
74495;SDS011;62979;55.720;37.606;2022-10-16T01:22:22;5.05;;;2.83;;
74495;SDS011;62979;55.720;37.606;2022-10-16T01:25:03;5.60;;;3.03;;
74495;SDS011;62979;55.720;37.606;2022-10-16T01:27:40;3.50;;;2.70;;
74495;SDS011;62979;55.720;37.606;2022-10-16T01:30:13;4.38;;;2.85;;
74495;SDS011;62979;55.720;37.606;2022-10-16T01:32:48;3.47;;;2.45;;
74495;SDS011;62979;55.720;37.606;2022-10-16T01:35:22;3.35;;;2.03;;
74495;SDS011;62979;55.720;37.606;2022-10-16T01:37:56;3.58;;;2.47;;
74495;SDS011;62979;55.720;37.606;2022-10-16T01:40:30;5.90;;;2.72;;
74495;SDS011;62979;55.720;37.606;2022-10-16T01:43:04;7.30;;;2.55;;
74495;SDS011;62979;55.720;37.606;2022-10-16T01:45:37;9.20;;;2.72;;
74495;SDS011;62979;55.720;37.606;2022-10-16T01:48:06;5.85;;;2.65;;
74495;SDS011;62979;55.720;37.606;2022-10-16T01:50:38;6.40;;;3.35;;
74495;SDS011;62979;55.720;37.606;2022-10-16T01:53:10;5.40;;;3.33;;
74495;SDS011;62979;55.720;37.606;2022-10-16T01:55:43;5.97;;;3.28;;
74495;SDS011;62979;55.720;37.606;2022-10-16T01:58:16;4.15;;;3.30;;
74495;SDS011;62979;55.720;37.606;2022-10-16T02:00:44;6.28;;;3.25;;
74495;SDS011;62979;55.720;37.606;2022-10-16T02:03:14;5.95;;;2.83;;
74495;SDS011;62979;55.720;37.606;2022-10-16T02:05:46;9.27;;;3.55;;
74495;SDS011;62979;55.720;37.606;2022-10-16T02:08:18;6.80;;;2.80;;
74495;SDS011;62979;55.720;37.606;2022-10-16T02:10:46;6.78;;;3.15;;
74495;SDS011;62979;55.720;37.606;2022-10-16T02:13:13;9.85;;;2.70;;
74495;SDS011;62979;55.720;37.606;2022-10-16T02:15:49;4.50;;;2.47;;
74495;SDS011;62979;55.720;37.606;2022-10-16T02:18:17;5.13;;;3.33;;
74495;SDS011;62979;55.720;37.606;2022-10-16T02:20:45;5.55;;;3.25;;
74495;SDS011;62979;55.720;37.606;2022-10-16T02:23:21;5.00;;;2.95;;
74495;SDS011;62979;55.720;37.606;2022-10-16T02:25:59;5.70;;;3.17;;
74495;SDS011;62979;55.720;37.606;2022-10-16T02:28:33;5.22;;;2.70;;
74495;SDS011;62979;55.720;37.606;2022-10-16T02:31:09;7.22;;;3.60;;
74495;SDS011;62979;55.720;37.606;2022-10-16T02:33:42;5.47;;;2.97;;
74495;SDS011;62979;55.720;37.606;2022-10-16T02:36:12;7.53;;;3.78;;
74495;SDS011;62979;55.720;37.606;2022-10-16T02:38:39;6.57;;;3.72;;
74495;SDS011;62979;55.720;37.606;2022-10-16T02:41:07;4.30;;;3.05;;
74495;SDS011;62979;55.720;37.606;2022-10-16T02:43:36;5.25;;;3.38;;
74495;SDS011;62979;55.720;37.606;2022-10-16T02:46:03;7.38;;;3.08;;
74495;SDS011;62979;55.720;37.606;2022-10-16T02:48:31;4.78;;;2.63;;
74495;SDS011;62979;55.720;37.606;2022-10-16T02:50:58;9.10;;;3.90;;
74495;SDS011;62979;55.720;37.606;2022-10-16T02:53:25;6.68;;;3.40;;
74495;SDS011;62979;55.720;37.606;2022-10-16T02:55:52;5.05;;;3.50;;
74495;SDS011;62979;55.720;37.606;2022-10-16T02:58:19;6.60;;;2.67;;
74495;SDS011;62979;55.720;37.606;2022-10-16T03:00:48;4.78;;;2.55;;
74495;SDS011;62979;55.720;37.606;2022-10-16T03:03:14;7.35;;;2.60;;
74495;SDS011;62979;55.720;37.606;2022-10-16T03:05:42;4.78;;;2.72;;
74495;SDS011;62979;55.720;37.606;2022-10-16T03:08:10;5.75;;;3.35;;
74495;SDS011;62979;55.720;37.606;2022-10-16T03:10:38;5.00;;;2.78;;
74495;SDS011;62979;55.720;37.606;2022-10-16T03:13:05;6.65;;;2.78;;
74495;SDS011;62979;55.720;37.606;2022-10-16T03:15:32;6.75;;;2.75;;
74495;SDS011;62979;55.720;37.606;2022-10-16T03:18:00;3.72;;;2.47;;
74495;SDS011;62979;55.720;37.606;2022-10-16T03:20:27;3.58;;;3.05;;
74495;SDS011;62979;55.720;37.606;2022-10-16T03:22:54;3.08;;;2.50;;
74495;SDS011;62979;55.720;37.606;2022-10-16T03:25:21;5.88;;;2.80;;
74495;SDS011;62979;55.720;37.606;2022-10-16T03:27:48;9.07;;;2.95;;
74495;SDS011;62979;55.720;37.606;2022-10-16T03:30:15;3.25;;;2.42;;
74495;SDS011;62979;55.720;37.606;2022-10-16T03:32:43;5.00;;;2.65;;
74495;SDS011;62979;55.720;37.606;2022-10-16T03:35:12;8.13;;;3.03;;
74495;SDS011;62979;55.720;37.606;2022-10-16T03:37:39;3.72;;;2.70;;
74495;SDS011;62979;55.720;37.606;2022-10-16T03:40:06;4.60;;;3.28;;
74495;SDS011;62979;55.720;37.606;2022-10-16T03:42:35;4.65;;;2.78;;
74495;SDS011;62979;55.720;37.606;2022-10-16T03:45:02;7.75;;;2.92;;
74495;SDS011;62979;55.720;37.606;2022-10-16T03:47:29;5.90;;;2.83;;
74495;SDS011;62979;55.720;37.606;2022-10-16T03:49:58;6.65;;;3.10;;
74495;SDS011;62979;55.720;37.606;2022-10-16T03:52:26;5.50;;;3.45;;
74495;SDS011;62979;55.720;37.606;2022-10-16T03:54:53;6.78;;;4.15;;
74495;SDS011;62979;55.720;37.606;2022-10-16T03:57:21;4.95;;;2.80;;
74495;SDS011;62979;55.720;37.606;2022-10-16T03:59:48;5.25;;;2.88;;
74495;SDS011;62979;55.720;37.606;2022-10-16T04:02:15;4.82;;;2.45;;
74495;SDS011;62979;55.720;37.606;2022-10-16T04:04:43;6.03;;;3.00;;
74495;SDS011;62979;55.720;37.606;2022-10-16T04:07:10;5.95;;;3.03;;
74495;SDS011;62979;55.720;37.606;2022-10-16T04:09:38;6.50;;;2.53;;
74495;SDS011;62979;55.720;37.606;2022-10-16T04:12:05;4.70;;;2.70;;
74495;SDS011;62979;55.720;37.606;2022-10-16T04:14:32;5.90;;;2.88;;
74495;SDS011;62979;55.720;37.606;2022-10-16T04:16:59;12.02;;;3.00;;
74495;SDS011;62979;55.720;37.606;2022-10-16T04:19:26;7.38;;;2.83;;
74495;SDS011;62979;55.720;37.606;2022-10-16T04:21:53;8.32;;;2.72;;
74495;SDS011;62979;55.720;37.606;2022-10-16T04:24:20;5.63;;;3.08;;
74495;SDS011;62979;55.720;37.606;2022-10-16T04:26:48;7.93;;;2.75;;
74495;SDS011;62979;55.720;37.606;2022-10-16T04:29:15;6.15;;;2.13;;
74495;SDS011;62979;55.720;37.606;2022-10-16T04:31:42;6.15;;;3.20;;
74495;SDS011;62979;55.720;37.606;2022-10-16T04:34:09;7.00;;;2.92;;
74495;SDS011;62979;55.720;37.606;2022-10-16T04:36:36;5.35;;;3.17;;
74495;SDS011;62979;55.720;37.606;2022-10-16T04:39:03;6.22;;;3.05;;
74495;SDS011;62979;55.720;37.606;2022-10-16T04:41:30;5.07;;;2.55;;
74495;SDS011;62979;55.720;37.606;2022-10-16T04:43:59;4.40;;;2.53;;
74495;SDS011;62979;55.720;37.606;2022-10-16T04:46:26;5.55;;;2.67;;
74495;SDS011;62979;55.720;37.606;2022-10-16T04:48:53;3.90;;;2.65;;
74495;SDS011;62979;55.720;37.606;2022-10-16T04:51:20;7.60;;;3.30;;
74495;SDS011;62979;55.720;37.606;2022-10-16T04:53:47;6.00;;;2.47;;
74495;SDS011;62979;55.720;37.606;2022-10-16T04:56:14;6.07;;;3.03;;
74495;SDS011;62979;55.720;37.606;2022-10-16T04:58:41;5.45;;;3.25;;
74495;SDS011;62979;55.720;37.606;2022-10-16T05:01:09;7.22;;;3.13;;
74495;SDS011;62979;55.720;37.606;2022-10-16T05:03:36;5.55;;;3.30;;
74495;SDS011;62979;55.720;37.606;2022-10-16T05:06:04;5.82;;;3.30;;
74495;SDS011;62979;55.720;37.606;2022-10-16T05:08:32;7.60;;;3.28;;
74495;SDS011;62979;55.720;37.606;2022-10-16T05:10:59;5.53;;;3.15;;
74495;SDS011;62979;55.720;37.606;2022-10-16T05:13:27;9.15;;;3.28;;
74495;SDS011;62979;55.720;37.606;2022-10-16T05:15:54;5.70;;;3.30;;
74495;SDS011;62979;55.720;37.606;2022-10-16T05:18:23;6.47;;;4.00;;
74495;SDS011;62979;55.720;37.606;2022-10-16T05:20:50;6.10;;;3.28;;
74495;SDS011;62979;55.720;37.606;2022-10-16T05:23:17;7.43;;;3.17;;
74495;SDS011;62979;55.720;37.606;2022-10-16T05:25:51;5.13;;;3.72;;
74495;SDS011;62979;55.720;37.606;2022-10-16T05:28:20;7.75;;;3.20;;
74495;SDS011;62979;55.720;37.606;2022-10-16T05:30:48;6.88;;;3.75;;
74495;SDS011;62979;55.720;37.606;2022-10-16T05:33:15;6.35;;;3.50;;
74495;SDS011;62979;55.720;37.606;2022-10-16T05:35:44;5.20;;;3.45;;
74495;SDS011;62979;55.720;37.606;2022-10-16T05:38:11;4.38;;;3.20;;
74495;SDS011;62979;55.720;37.606;2022-10-16T05:40:38;5.35;;;3.22;;
74495;SDS011;62979;55.720;37.606;2022-10-16T05:43:05;9.75;;;3.63;;
74495;SDS011;62979;55.720;37.606;2022-10-16T05:45:32;10.23;;;3.75;;
74495;SDS011;62979;55.720;37.606;2022-10-16T05:48:00;8.02;;;2.72;;
74495;SDS011;62979;55.720;37.606;2022-10-16T05:50:27;9.18;;;3.28;;
74495;SDS011;62979;55.720;37.606;2022-10-16T05:52:55;10.23;;;3.47;;
74495;SDS011;62979;55.720;37.606;2022-10-16T05:55:23;7.18;;;2.78;;
74495;SDS011;62979;55.720;37.606;2022-10-16T05:57:50;9.10;;;3.17;;
74495;SDS011;62979;55.720;37.606;2022-10-16T06:00:20;13.13;;;4.93;;
74495;SDS011;62979;55.720;37.606;2022-10-16T06:02:47;8.35;;;3.85;;
74495;SDS011;62979;55.720;37.606;2022-10-16T06:05:14;7.00;;;4.18;;
74495;SDS011;62979;55.720;37.606;2022-10-16T06:07:42;5.22;;;3.75;;
74495;SDS011;62979;55.720;37.606;2022-10-16T06:10:13;7.00;;;3.85;;
74495;SDS011;62979;55.720;37.606;2022-10-16T06:12:40;9.18;;;3.53;;
74495;SDS011;62979;55.720;37.606;2022-10-16T06:15:08;6.65;;;3.53;;
74495;SDS011;62979;55.720;37.606;2022-10-16T06:17:35;8.35;;;4.43;;
74495;SDS011;62979;55.720;37.606;2022-10-16T06:20:02;9.02;;;4.18;;
74495;SDS011;62979;55.720;37.606;2022-10-16T06:22:30;10.13;;;4.85;;
74495;SDS011;62979;55.720;37.606;2022-10-16T06:24:56;10.13;;;4.53;;
74495;SDS011;62979;55.720;37.606;2022-10-16T06:27:25;6.32;;;4.15;;
74495;SDS011;62979;55.720;37.606;2022-10-16T06:29:52;7.03;;;4.55;;
74495;SDS011;62979;55.720;37.606;2022-10-16T06:32:19;10.45;;;4.45;;
74495;SDS011;62979;55.720;37.606;2022-10-16T06:34:46;12.15;;;4.57;;
74495;SDS011;62979;55.720;37.606;2022-10-16T06:37:13;6.90;;;3.58;;
74495;SDS011;62979;55.720;37.606;2022-10-16T06:39:40;10.27;;;4.05;;
74495;SDS011;62979;55.720;37.606;2022-10-16T06:42:07;6.28;;;4.38;;
74495;SDS011;62979;55.720;37.606;2022-10-16T06:44:36;9.02;;;4.25;;
74495;SDS011;62979;55.720;37.606;2022-10-16T06:47:03;12.82;;;4.55;;
74495;SDS011;62979;55.720;37.606;2022-10-16T06:49:30;8.45;;;4.60;;
74495;SDS011;62979;55.720;37.606;2022-10-16T06:51:57;8.02;;;4.07;;
74495;SDS011;62979;55.720;37.606;2022-10-16T06:54:24;9.23;;;4.72;;
74495;SDS011;62979;55.720;37.606;2022-10-16T06:56:51;9.40;;;3.83;;
74495;SDS011;62979;55.720;37.606;2022-10-16T06:59:19;8.57;;;3.97;;
74495;SDS011;62979;55.720;37.606;2022-10-16T07:01:48;10.05;;;4.43;;
74495;SDS011;62979;55.720;37.606;2022-10-16T07:04:15;6.38;;;3.63;;
74495;SDS011;62979;55.720;37.606;2022-10-16T07:06:42;7.78;;;3.55;;
74495;SDS011;62979;55.720;37.606;2022-10-16T07:09:11;5.57;;;3.03;;
74495;SDS011;62979;55.720;37.606;2022-10-16T07:11:38;5.80;;;3.38;;
74495;SDS011;62979;55.720;37.606;2022-10-16T07:14:10;5.25;;;3.38;;
74495;SDS011;62979;55.720;37.606;2022-10-16T07:16:42;5.18;;;3.55;;
74495;SDS011;62979;55.720;37.606;2022-10-16T07:19:10;6.22;;;3.10;;
74495;SDS011;62979;55.720;37.606;2022-10-16T07:21:39;6.28;;;3.25;;
74495;SDS011;62979;55.720;37.606;2022-10-16T07:24:10;6.00;;;3.05;;
74495;SDS011;62979;55.720;37.606;2022-10-16T07:26:40;4.80;;;3.28;;
74495;SDS011;62979;55.720;37.606;2022-10-16T07:29:11;6.88;;;3.53;;
74495;SDS011;62979;55.720;37.606;2022-10-16T07:31:41;4.95;;;3.40;;
74495;SDS011;62979;55.720;37.606;2022-10-16T07:34:10;4.60;;;3.17;;
74495;SDS011;62979;55.720;37.606;2022-10-16T07:36:39;8.80;;;3.50;;
74495;SDS011;62979;55.720;37.606;2022-10-16T07:39:07;7.05;;;2.88;;
74495;SDS011;62979;55.720;37.606;2022-10-16T07:41:34;8.43;;;3.72;;
74495;SDS011;62979;55.720;37.606;2022-10-16T07:44:03;6.53;;;3.83;;
74495;SDS011;62979;55.720;37.606;2022-10-16T07:46:31;5.10;;;2.88;;
74495;SDS011;62979;55.720;37.606;2022-10-16T07:48:59;6.88;;;3.05;;
74495;SDS011;62979;55.720;37.606;2022-10-16T07:51:27;11.32;;;3.47;;
74495;SDS011;62979;55.720;37.606;2022-10-16T07:53:55;5.30;;;3.22;;
74495;SDS011;62979;55.720;37.606;2022-10-16T07:56:22;6.85;;;3.72;;
74495;SDS011;62979;55.720;37.606;2022-10-16T07:58:49;8.45;;;3.53;;
74495;SDS011;62979;55.720;37.606;2022-10-16T08:01:17;5.82;;;2.75;;
74495;SDS011;62979;55.720;37.606;2022-10-16T08:03:46;7.32;;;3.60;;
74495;SDS011;62979;55.720;37.606;2022-10-16T08:06:15;5.25;;;3.05;;
74495;SDS011;62979;55.720;37.606;2022-10-16T08:11:12;7.32;;;2.85;;
74495;SDS011;62979;55.720;37.606;2022-10-16T08:13:40;8.50;;;3.88;;
74495;SDS011;62979;55.720;37.606;2022-10-16T08:16:07;5.22;;;3.50;;
74495;SDS011;62979;55.720;37.606;2022-10-16T08:18:35;3.97;;;3.22;;
74495;SDS011;62979;55.720;37.606;2022-10-16T08:21:07;9.02;;;3.20;;
74495;SDS011;62979;55.720;37.606;2022-10-16T08:23:39;6.97;;;4.18;;
74495;SDS011;62979;55.720;37.606;2022-10-16T08:26:07;6.88;;;3.25;;
74495;SDS011;62979;55.720;37.606;2022-10-16T08:28:35;10.82;;;3.30;;
74495;SDS011;62979;55.720;37.606;2022-10-16T08:31:07;5.65;;;3.17;;
74495;SDS011;62979;55.720;37.606;2022-10-16T08:33:36;6.75;;;3.78;;
74495;SDS011;62979;55.720;37.606;2022-10-16T08:36:05;9.77;;;4.05;;
74495;SDS011;62979;55.720;37.606;2022-10-16T08:38:32;6.35;;;3.55;;
74495;SDS011;62979;55.720;37.606;2022-10-16T08:41:02;6.20;;;2.75;;
74495;SDS011;62979;55.720;37.606;2022-10-16T08:44:06;5.25;;;2.75;;
74495;SDS011;62979;55.720;37.606;2022-10-16T08:46:56;6.03;;;3.13;;
74495;SDS011;62979;55.720;37.606;2022-10-16T08:49:39;6.63;;;2.83;;
74495;SDS011;62979;55.720;37.606;2022-10-16T08:52:14;4.95;;;2.55;;
74495;SDS011;62979;55.720;37.606;2022-10-16T08:54:42;9.10;;;2.90;;
74495;SDS011;62979;55.720;37.606;2022-10-16T08:57:19;7.40;;;2.60;;
74495;SDS011;62979;55.720;37.606;2022-10-16T08:59:49;7.00;;;3.10;;
74495;SDS011;62979;55.720;37.606;2022-10-16T09:02:21;6.78;;;2.15;;
74495;SDS011;62979;55.720;37.606;2022-10-16T09:05:02;5.22;;;2.22;;
74495;SDS011;62979;55.720;37.606;2022-10-16T09:07:53;8.65;;;2.63;;
74495;SDS011;62979;55.720;37.606;2022-10-16T09:10:38;5.25;;;3.13;;
74495;SDS011;62979;55.720;37.606;2022-10-16T09:13:23;5.78;;;2.35;;
74495;SDS011;62979;55.720;37.606;2022-10-16T09:15:58;6.53;;;2.53;;
74495;SDS011;62979;55.720;37.606;2022-10-16T09:18:44;6.18;;;2.15;;
74495;SDS011;62979;55.720;37.606;2022-10-16T09:21:21;7.68;;;3.35;;
74495;SDS011;62979;55.720;37.606;2022-10-16T09:23:54;3.83;;;1.42;;
74495;SDS011;62979;55.720;37.606;2022-10-16T09:26:31;3.75;;;2.08;;
74495;SDS011;62979;55.720;37.606;2022-10-16T09:28:59;7.93;;;3.15;;
74495;SDS011;62979;55.720;37.606;2022-10-16T09:31:26;4.45;;;2.22;;
74495;SDS011;62979;55.720;37.606;2022-10-16T09:33:55;4.80;;;2.08;;
74495;SDS011;62979;55.720;37.606;2022-10-16T09:36:31;5.90;;;1.65;;
74495;SDS011;62979;55.720;37.606;2022-10-16T09:39:09;3.90;;;1.85;;
74495;SDS011;62979;55.720;37.606;2022-10-16T09:41:38;6.88;;;1.98;;
74495;SDS011;62979;55.720;37.606;2022-10-16T09:44:18;7.97;;;1.92;;
74495;SDS011;62979;55.720;37.606;2022-10-16T09:47:00;5.25;;;2.45;;
74495;SDS011;62979;55.720;37.606;2022-10-16T09:49:28;3.67;;;1.52;;
74495;SDS011;62979;55.720;37.606;2022-10-16T09:52:02;4.13;;;1.92;;
74495;SDS011;62979;55.720;37.606;2022-10-16T09:54:31;3.75;;;1.60;;
74495;SDS011;62979;55.720;37.606;2022-10-16T09:57:05;5.13;;;2.13;;
74495;SDS011;62979;55.720;37.606;2022-10-16T09:59:45;5.05;;;2.08;;
74495;SDS011;62979;55.720;37.606;2022-10-16T10:02:14;5.43;;;2.13;;
74495;SDS011;62979;55.720;37.606;2022-10-16T10:04:46;4.78;;;1.90;;
74495;SDS011;62979;55.720;37.606;2022-10-16T10:07:20;5.97;;;2.00;;
74495;SDS011;62979;55.720;37.606;2022-10-16T10:09:53;2.17;;;1.08;;
74495;SDS011;62979;55.720;37.606;2022-10-16T10:12:23;5.68;;;2.38;;
74495;SDS011;62979;55.720;37.606;2022-10-16T10:14:56;4.40;;;2.40;;
74495;SDS011;62979;55.720;37.606;2022-10-16T10:17:30;6.65;;;2.55;;
74495;SDS011;62979;55.720;37.606;2022-10-16T10:19:58;3.95;;;1.83;;
74495;SDS011;62979;55.720;37.606;2022-10-16T10:22:29;7.60;;;2.08;;
74495;SDS011;62979;55.720;37.606;2022-10-16T10:25:23;3.88;;;2.65;;
74495;SDS011;62979;55.720;37.606;2022-10-16T10:28:26;6.45;;;2.35;;
74495;SDS011;62979;55.720;37.606;2022-10-16T10:31:20;5.95;;;2.10;;
74495;SDS011;62979;55.720;37.606;2022-10-16T10:33:57;3.25;;;2.83;;
74495;SDS011;62979;55.720;37.606;2022-10-16T10:36:39;5.68;;;2.47;;
74495;SDS011;62979;55.720;37.606;2022-10-16T10:39:11;5.47;;;1.65;;
74495;SDS011;62979;55.720;37.606;2022-10-16T10:41:56;3.95;;;2.45;;
74495;SDS011;62979;55.720;37.606;2022-10-16T10:44:51;2.85;;;2.30;;
74495;SDS011;62979;55.720;37.606;2022-10-16T10:47:41;6.63;;;2.42;;
74495;SDS011;62979;55.720;37.606;2022-10-16T10:50:38;4.88;;;2.40;;
74495;SDS011;62979;55.720;37.606;2022-10-16T10:53:18;5.75;;;2.45;;
74495;SDS011;62979;55.720;37.606;2022-10-16T10:56:05;3.13;;;2.50;;
74495;SDS011;62979;55.720;37.606;2022-10-16T10:58:51;3.67;;;2.85;;
74495;SDS011;62979;55.720;37.606;2022-10-16T11:01:39;6.70;;;2.20;;
74495;SDS011;62979;55.720;37.606;2022-10-16T11:04:28;3.45;;;2.65;;
74495;SDS011;62979;55.720;37.606;2022-10-16T11:07:21;3.33;;;2.55;;
74495;SDS011;62979;55.720;37.606;2022-10-16T11:09:56;2.83;;;2.17;;
74495;SDS011;62979;55.720;37.606;2022-10-16T11:12:29;4.03;;;2.60;;
74495;SDS011;62979;55.720;37.606;2022-10-16T11:15:03;3.65;;;1.88;;
74495;SDS011;62979;55.720;37.606;2022-10-16T11:17:41;2.85;;;2.13;;
74495;SDS011;62979;55.720;37.606;2022-10-16T11:20:18;3.20;;;2.17;;
74495;SDS011;62979;55.720;37.606;2022-10-16T11:22:50;6.75;;;5.25;;
74495;SDS011;62979;55.720;37.606;2022-10-16T11:25:25;4.15;;;2.85;;
74495;SDS011;62979;55.720;37.606;2022-10-16T11:27:56;2.83;;;2.63;;
74495;SDS011;62979;55.720;37.606;2022-10-16T11:30:30;2.80;;;2.60;;
74495;SDS011;62979;55.720;37.606;2022-10-16T11:33:10;7.38;;;3.35;;
74495;SDS011;62979;55.720;37.606;2022-10-16T11:35:55;5.22;;;2.95;;
74495;SDS011;62979;55.720;37.606;2022-10-16T11:38:30;4.13;;;2.83;;
74495;SDS011;62979;55.720;37.606;2022-10-16T11:41:11;3.20;;;2.85;;
74495;SDS011;62979;55.720;37.606;2022-10-16T11:43:50;3.50;;;2.65;;
74495;SDS011;62979;55.720;37.606;2022-10-16T11:46:32;6.72;;;4.80;;
74495;SDS011;62979;55.720;37.606;2022-10-16T11:49:08;3.10;;;2.80;;
74495;SDS011;62979;55.720;37.606;2022-10-16T11:51:43;2.88;;;2.60;;
74495;SDS011;62979;55.720;37.606;2022-10-16T11:54:20;6.20;;;2.90;;
74495;SDS011;62979;55.720;37.606;2022-10-16T11:57:00;3.28;;;2.83;;
74495;SDS011;62979;55.720;37.606;2022-10-16T11:59:40;4.57;;;3.58;;
74495;SDS011;62979;55.720;37.606;2022-10-16T12:02:25;3.75;;;3.20;;
74495;SDS011;62979;55.720;37.606;2022-10-16T12:05:11;4.22;;;2.75;;
74495;SDS011;62979;55.720;37.606;2022-10-16T12:07:53;6.00;;;3.22;;
74495;SDS011;62979;55.720;37.606;2022-10-16T12:10:32;2.78;;;2.30;;
74495;SDS011;62979;55.720;37.606;2022-10-16T12:13:02;4.18;;;3.65;;
74495;SDS011;62979;55.720;37.606;2022-10-16T12:15:30;4.85;;;2.88;;
74495;SDS011;62979;55.720;37.606;2022-10-16T12:17:59;5.60;;;2.97;;
74495;SDS011;62979;55.720;37.606;2022-10-16T12:22:58;4.55;;;2.80;;
74495;SDS011;62979;55.720;37.606;2022-10-16T12:25:29;4.18;;;2.90;;
74495;SDS011;62979;55.720;37.606;2022-10-16T12:28:00;3.00;;;2.72;;
74495;SDS011;62979;55.720;37.606;2022-10-16T12:30:31;4.43;;;3.25;;
74495;SDS011;62979;55.720;37.606;2022-10-16T12:33:02;6.95;;;3.28;;
74495;SDS011;62979;55.720;37.606;2022-10-16T12:35:32;4.40;;;4.00;;
74495;SDS011;62979;55.720;37.606;2022-10-16T12:38:17;6.28;;;4.07;;
74495;SDS011;62979;55.720;37.606;2022-10-16T12:40:47;7.75;;;3.33;;
74495;SDS011;62979;55.720;37.606;2022-10-16T12:43:36;4.32;;;2.47;;
74495;SDS011;62979;55.720;37.606;2022-10-16T12:46:26;7.07;;;2.88;;
74495;SDS011;62979;55.720;37.606;2022-10-16T12:49:05;4.00;;;2.40;;
74495;SDS011;62979;55.720;37.606;2022-10-16T12:51:55;3.63;;;2.42;;
74495;SDS011;62979;55.720;37.606;2022-10-16T12:54:27;6.75;;;3.50;;
74495;SDS011;62979;55.720;37.606;2022-10-16T12:57:12;4.93;;;2.75;;
74495;SDS011;62979;55.720;37.606;2022-10-16T13:00:03;5.70;;;3.10;;
74495;SDS011;62979;55.720;37.606;2022-10-16T13:02:53;5.88;;;3.00;;
74495;SDS011;62979;55.720;37.606;2022-10-16T13:05:47;4.80;;;3.08;;
74495;SDS011;62979;55.720;37.606;2022-10-16T13:08:35;4.53;;;3.05;;
74495;SDS011;62979;55.720;37.606;2022-10-16T13:11:26;3.28;;;2.40;;
74495;SDS011;62979;55.720;37.606;2022-10-16T13:14:18;3.75;;;3.15;;
74495;SDS011;62979;55.720;37.606;2022-10-16T13:17:25;4.93;;;3.17;;
74495;SDS011;62979;55.720;37.606;2022-10-16T13:20:09;3.35;;;2.50;;
74495;SDS011;62979;55.720;37.606;2022-10-16T13:22:49;4.53;;;3.78;;
74495;SDS011;62979;55.720;37.606;2022-10-16T13:25:33;5.53;;;2.60;;
74495;SDS011;62979;55.720;37.606;2022-10-16T13:28:17;3.47;;;2.33;;
74495;SDS011;62979;55.720;37.606;2022-10-16T13:30:51;4.18;;;2.78;;
74495;SDS011;62979;55.720;37.606;2022-10-16T13:33:24;5.07;;;2.75;;
74495;SDS011;62979;55.720;37.606;2022-10-16T13:35:59;3.55;;;2.25;;
74495;SDS011;62979;55.720;37.606;2022-10-16T13:38:29;4.22;;;2.72;;
74495;SDS011;62979;55.720;37.606;2022-10-16T13:40:58;4.40;;;2.30;;
74495;SDS011;62979;55.720;37.606;2022-10-16T13:43:31;5.63;;;2.53;;
74495;SDS011;62979;55.720;37.606;2022-10-16T13:48:31;3.88;;;2.63;;
74495;SDS011;62979;55.720;37.606;2022-10-16T13:51:01;4.10;;;2.35;;
74495;SDS011;62979;55.720;37.606;2022-10-16T13:53:38;4.90;;;2.38;;
74495;SDS011;62979;55.720;37.606;2022-10-16T13:56:07;5.78;;;2.25;;
74495;SDS011;62979;55.720;37.606;2022-10-16T13:58:40;4.88;;;1.98;;
74495;SDS011;62979;55.720;37.606;2022-10-16T14:01:15;4.10;;;2.17;;
74495;SDS011;62979;55.720;37.606;2022-10-16T14:03:46;2.65;;;1.85;;
74495;SDS011;62979;55.720;37.606;2022-10-16T14:06:16;4.18;;;2.45;;
74495;SDS011;62979;55.720;37.606;2022-10-16T14:08:48;5.32;;;1.92;;
74495;SDS011;62979;55.720;37.606;2022-10-16T14:11:23;6.20;;;2.30;;
74495;SDS011;62979;55.720;37.606;2022-10-16T14:13:53;7.45;;;2.13;;
74495;SDS011;62979;55.720;37.606;2022-10-16T14:16:22;5.13;;;2.08;;
74495;SDS011;62979;55.720;37.606;2022-10-16T14:18:55;6.68;;;2.10;;
74495;SDS011;62979;55.720;37.606;2022-10-16T14:21:25;5.20;;;1.90;;
74495;SDS011;62979;55.720;37.606;2022-10-16T14:23:52;3.63;;;2.13;;
74495;SDS011;62979;55.720;37.606;2022-10-16T14:26:22;3.13;;;1.88;;
74495;SDS011;62979;55.720;37.606;2022-10-16T14:29:10;4.40;;;2.50;;
74495;SDS011;62979;55.720;37.606;2022-10-16T14:31:41;4.63;;;2.28;;
74495;SDS011;62979;55.720;37.606;2022-10-16T14:34:28;4.15;;;2.80;;
74495;SDS011;62979;55.720;37.606;2022-10-16T14:36:59;8.02;;;2.60;;
74495;SDS011;62979;55.720;37.606;2022-10-16T14:39:32;3.08;;;2.22;;
74495;SDS011;62979;55.720;37.606;2022-10-16T14:42:00;5.18;;;2.63;;
74495;SDS011;62979;55.720;37.606;2022-10-16T14:44:30;4.07;;;2.30;;
74495;SDS011;62979;55.720;37.606;2022-10-16T14:47:06;3.30;;;2.22;;
74495;SDS011;62979;55.720;37.606;2022-10-16T14:49:38;4.68;;;2.00;;
74495;SDS011;62979;55.720;37.606;2022-10-16T14:52:08;4.88;;;2.40;;
74495;SDS011;62979;55.720;37.606;2022-10-16T14:54:38;7.63;;;3.97;;
74495;SDS011;62979;55.720;37.606;2022-10-16T14:57:12;6.78;;;2.47;;
74495;SDS011;62979;55.720;37.606;2022-10-16T14:59:47;7.68;;;3.25;;
74495;SDS011;62979;55.720;37.606;2022-10-16T15:02:18;5.07;;;2.33;;
74495;SDS011;62979;55.720;37.606;2022-10-16T15:04:54;7.15;;;2.95;;
74495;SDS011;62979;55.720;37.606;2022-10-16T15:07:22;7.60;;;2.88;;
74495;SDS011;62979;55.720;37.606;2022-10-16T15:09:50;9.40;;;2.28;;
74495;SDS011;62979;55.720;37.606;2022-10-16T15:12:18;6.28;;;3.30;;
74495;SDS011;62979;55.720;37.606;2022-10-16T15:14:46;4.03;;;2.70;;